Alto, TX

3:06 PM CST on January 30, 2015 (GMT -0600)
Angelina County | Change Station
CLOSE
Current Station
Airport
Location: Lufkin,
Elevation: 289 ft
Nearby Weather Stations
Active Advisory: Flood Warning

Elev 289 ft 31.24 °N, 94.75 °W | Updated 13 minutes ago

Clear
Clear
61 °F
Feels Like 61 °F
N
5
Wind Variable Wind from Variable

Today
High -- | Low -- °F
--% Chance of Precip.
Yesterday
High -- | Low -- °F
Precip. -- in
7:14 AM 5:52 PM
Waxing Gibbous, 85% visible
Pressure 30.35 in
Visibility 10.0 miles
Clouds Clear
Dew Point 31 °F
Humidity 32%
Rainfall 0.00 in
Snow Depth Not available.
UV 3 out of 12
Pollen 7.60 out of 12
Air Quality Not available.
Flu Activity Not available.
METAR KLFK 302053Z AUTO VRB04KT 10SM CLR 16/M01 A3036 RMK AO2 SLP278 T01611006 56029

More Conditions Fewer Conditions

Pressure 30.35 in
Visibility 10.0 miles
Clouds Clear
Dew Point 31 °F
Humidity 32%
Rainfall 0.00 in
Snow Depth Not available.
UV 3 out of 12
Pollen 7.60 out of 12
Air Quality Not available.
Flu Activity Not available.
METAR KLFK 302053Z AUTO VRB04KT 10SM CLR 16/M01 A3036 RMK AO2 SLP278 T01611006 56029

More Conditions Fewer Conditions

10-Day Weather Forecast

Almanac

Astronomy

Jan. 30, 2015 Rise Set
Actual Time
Civil Twilight
Nautical Twilight
Astronomical Twilight
Moon
Length of Visible Light
Length of Day
Tomorrow will be .
, % of the Moon is Illuminated

Today's Extremes

State Highs State Lows

Community

WunderPhotos

Upload Photos

1,791,894 photos uploaded!

WunderBlogs® & News

Nearby

Air Quality

  Air Quality AQ Index Pollutant
Not available.

Snow Depth

Station Depth Elevation

Earthquake Activity

City Distance Mag. Time & Date
Minimum magnitude displayed is 2.5.

Coastal Water Temperatures

Place Temperature

Nearby Weather Stations